Kanawha Head, West Virginia
Current Conditions -  °F | °C
As of 12:35 PM on Friday 28 Nov 2014 (Local Time) from KW22 Reporting Station
Overcast Overcast  
Wind Chill: 16°   Ceiling: 3400
Heat Index: 25°   Visibility: 10mi
Dew Point: 16°   Wind: 8mph
Humidity: 69%   Direction: 240°WSW
Pressure: 30.29"   Gusts: NA
Location:  38.77°N, 80.35°W
Report Text: KW22 281735Z AUTO 24007KT 10SM SCT024 OVC034 M04/M09 A3029 RMK AO2
Loading
Personal Weather Stations






























Interactive Weather Map New forecast layout! Learn more

10-Day Weather Forecast

Advertisements
Track Severe Weather on mobile